Hutchinson County Airport - Borger, Texas, United States - FAA: BGD - ICAO: KBGD - IATA: BGD

 
  Longest Runway: 6,300 feet   Approach Types:    Customs Landing Rights Airport: No   Port of Entry: No

Local Forecast

Today (5/28): Showers and thunderstorms likely. Some of the storms could be severe. Partly sunny, with a high near 78. South wind around 15 mph, with gusts as high as 25 mph. Chance of precipitation is 60%.

Tonight (5/28): A 50 percent chance of showers and thunderstorms. Some of the storms could be severe. Partly cloudy, with a low around 60. South wind 10 to 15 mph, with gusts as high as 25 mph.

Friday (5/29): A 30 percent chance of showers and thunderstorms. Mostly sunny, with a high near 79. South southwest wind 5 to 10 mph becoming north northeast in the afternoon.

Friday Night (5/29): A 50 percent chance of showers and thunderstorms. Mostly cloudy, with a low around 57. North northeast wind 5 to 10 mph.

Saturday (5/30): A 20 percent chance of showers and thunderstorms. Partly sunny, with a high near 71. North northeast wind 10 to 15 mph.

Saturday Night (5/30): Partly cloudy, with a low around 55. East northeast wind 5 to 10 mph becoming southeast after midnight.

Sunday (5/31): Mostly sunny, with a high near 77. South wind 5 to 10 mph.



Current Weather (METAR)

2015/05/28 14:51 KBGD 281451Z AUTO 10007KT 10SM BKN047 OVC060 20/11 A3010 RMK AO2 SLP158 T02000111 51008

BORGER HUTCHINSON CO AIRPORT , TX, United States (KBGD) 35-42N 101-24W 927M May 28, 2015 - 10:51 AM EDT / 2015.05.28 1451 UTC Wind: from the E (100 degrees) at 8 MPH (7 KT):0 Visibility: 10 mile(s):0 Sky conditions: overcast Temperature: 68.0 F (20.0 C) Dew Point: 52.0 F (11.1 C) Relative Humidity: 56% Pressure (altimeter): 30.1 in. Hg (1019 hPa) Pressure tendency: 0.02 inches (0.8 hPa) higher than three hours ago ob: KBGD 281451Z AUTO 10007KT 10SM BKN047 OVC060 20/11 A3010 RMK AO2 SLP158 T02000111 51008 cycle: 15

Terminal Forecast (TAF)